Portada
METAR-TAF:

METAR-TAF

Aeroports :

Formosa, Argentina

latitud: 26-12S, longitud: 058-14W, altitud: 59 m

Observació

L'informe es va fer fa 20 minuts, a les 07:00 UTC
Vent 11 kt del Sud
Temperatura 22°C
Humitat 100%
Pressió 1007 hPa
Visibilitat 10 km o més
Cel cobert a una alçada de 700 ft

METAR: SARF 230700Z 18011KT 9999 OVC007 22/22 Q1007

Hora: 04:20 (07:20 UTC)

Pronòstic

L'informe es va fer fa 2 hores i 20 minuts, a les 05:00 UTC
Pronòstic vàlid del 23 a les 06 UTC al 24 a les 06 UTC
Vent 10 kt del Sud
Visibilitat 10 km o més
Cel cobert a una alçada de 700 ft
Evolucionant progressivament
l' 23 a les 12 UTC al 23 a les 14 UTC
Cel ennuvolat a una alçada de 2000 ft
Núvols disperses a una alçada de 10000 ft
Evolucionant progressivament
l' 23 a les 17 UTC al 23 a les 19 UTC
Visibilitat 10 km o més
sense núvols per sota de 1500 mi sense presència de cumulonimbus.

TAF: SARF 230500Z 2306/2406 18010KT 9999 OVC007 TX30/2319Z TN21/2309Z BECMG 2312/2314 BKN020 SCT100 BECMG 2317/2319 CAVOK

Observacions i pronòstics meteorològics de més de 4000 aeroports (METAR i TAF).

Les estacions disponibles són els punts grocs i vermells al mapa.

Posi el ratolí al punt desitjat per veure el nom de l'estació.

Feu clic per veure les observacions i els pronòstics meteorològics.

Per canviar el mapa: feu clic els botons verds amb una creu de color negre per apropar; al botó verd amb un guió per allunyar la imatge; o en les fletxes verdes per a mapes adjacents.


METAR-TAF: